createdAt,value
2023-02-19T00:05:39.644Z,1025
2023-02-19T00:36:43.268Z,1025
2023-02-19T01:07:48.115Z,1025
2023-02-19T01:38:55.221Z,1025
2023-02-19T02:11:08.054Z,1025
2023-02-19T02:42:12.740Z,1024
2023-02-19T03:13:14.837Z,1024
2023-02-19T03:46:41.685Z,1024
2023-02-19T04:17:46.924Z,1025
2023-02-19T04:48:47.944Z,1025
2023-02-19T05:19:50.822Z,1025
2023-02-19T05:50:55.727Z,1026
2023-02-19T06:29:44.872Z,1026
2023-02-19T07:01:48.738Z,1026
2023-02-19T07:35:05.450Z,1027
2023-02-19T08:06:08.933Z,1027
2023-02-19T08:38:25.921Z,1027
2023-02-19T09:15:11.366Z,1027
2023-02-19T09:48:24.218Z,1027
2023-02-19T10:19:27.196Z,1028
2023-02-19T10:50:31.387Z,1028
2023-02-19T11:21:35.375Z,1028
2023-02-19T11:52:37.682Z,1028
2023-02-19T12:33:53.097Z,1028
2023-02-19T13:04:53.801Z,1028
2023-02-19T13:35:57.311Z,1028
2023-02-19T14:08:12.059Z,1028
2023-02-19T14:49:23.331Z,1028
2023-02-19T15:30:00.201Z,1028
2023-02-19T16:03:13.814Z,1028
2023-02-19T17:02:11.043Z,1029
2023-02-19T17:46:23.508Z,1029
2023-02-19T18:18:31.133Z,1029
2023-02-19T19:21:42.533Z,1030
2023-02-19T20:00:21.509Z,1030
2023-02-19T20:31:18.522Z,1030
2023-02-19T21:03:34.078Z,1030
2023-02-19T21:40:11.234Z,1030
2023-02-19T22:21:04.266Z,1030
2023-02-19T22:52:01.010Z,1030
2023-02-19T23:23:03.792Z,1030
2023-02-19T23:54:11.805Z,1031
